Terminal Aerodrome Forecast
Issued by NWS Buffalo, NY

Home | Current Version | Previous Version | Text Only | Print | Product List | Glossary On
Versions: 1 2 3 4 5 6 7 8 9 10 11 12 13 14 15 16 17 18 19 20 21 22 23 24 25 26
000
FTUS41 KBUF 011100
TAFROC
TAF
KROC 011120Z 0112/0212 22004KT P6SM SCT015
     FM011600 19004KT P6SM SCT035
     FM012100 22006KT P6SM VCTS BKN045CB
     FM012300 20004KT P6SM SCT060
     FM020600 21008KT P6SM SCT120
     FM020900 21007KT P6SM VCSH BKN060=

USA.gov is the U.S. government's official web portal to all federal, state and local government web resources and services.